sensor_id;sensor_type;location;lat;lon;timestamp;P1;durP1;ratioP1;P2;durP2;ratioP2
69837;SDS011;57135;51.992;4.476;2023-05-23T00:01:20;20.89;;;20.13;;
69837;SDS011;57135;51.992;4.476;2023-05-23T00:03:47;18.45;;;18.03;;
69837;SDS011;57135;51.992;4.476;2023-05-23T00:06:13;17.58;;;17.30;;
69837;SDS011;57135;51.992;4.476;2023-05-23T00:08:38;17.55;;;17.25;;
69837;SDS011;57135;51.992;4.476;2023-05-23T00:11:04;17.71;;;17.18;;
69837;SDS011;57135;51.992;4.476;2023-05-23T00:13:30;17.01;;;16.52;;
69837;SDS011;57135;51.992;4.476;2023-05-23T00:15:58;18.23;;;17.80;;
69837;SDS011;57135;51.992;4.476;2023-05-23T00:18:24;17.69;;;17.19;;
69837;SDS011;57135;51.992;4.476;2023-05-23T00:20:50;18.88;;;18.15;;
69837;SDS011;57135;51.992;4.476;2023-05-23T00:23:16;17.91;;;17.30;;
69837;SDS011;57135;51.992;4.476;2023-05-23T00:25:45;15.41;;;15.02;;
69837;SDS011;57135;51.992;4.476;2023-05-23T00:28:16;14.63;;;14.19;;
69837;SDS011;57135;51.992;4.476;2023-05-23T00:30:42;13.36;;;13.15;;
69837;SDS011;57135;51.992;4.476;2023-05-23T00:33:07;13.69;;;13.34;;
69837;SDS011;57135;51.992;4.476;2023-05-23T00:35:33;13.43;;;13.14;;
69837;SDS011;57135;51.992;4.476;2023-05-23T00:37:58;13.56;;;13.37;;
69837;SDS011;57135;51.992;4.476;2023-05-23T00:40:26;13.37;;;13.01;;
69837;SDS011;57135;51.992;4.476;2023-05-23T00:42:52;13.31;;;12.85;;
69837;SDS011;57135;51.992;4.476;2023-05-23T00:45:17;13.91;;;13.47;;
69837;SDS011;57135;51.992;4.476;2023-05-23T00:47:43;14.64;;;14.10;;
69837;SDS011;57135;51.992;4.476;2023-05-23T00:50:11;14.36;;;13.79;;
69837;SDS011;57135;51.992;4.476;2023-05-23T00:52:40;15.12;;;14.58;;
69837;SDS011;57135;51.992;4.476;2023-05-23T00:55:07;15.12;;;14.51;;
69837;SDS011;57135;51.992;4.476;2023-05-23T00:57:34;15.35;;;14.61;;
69837;SDS011;57135;51.992;4.476;2023-05-23T01:00:05;15.96;;;15.02;;
69837;SDS011;57135;51.992;4.476;2023-05-23T01:02:34;15.32;;;14.62;;
69837;SDS011;57135;51.992;4.476;2023-05-23T01:05:08;14.32;;;13.88;;
69837;SDS011;57135;51.992;4.476;2023-05-23T01:07:35;14.64;;;14.10;;
69837;SDS011;57135;51.992;4.476;2023-05-23T01:10:01;14.99;;;14.36;;
69837;SDS011;57135;51.992;4.476;2023-05-23T01:12:37;14.94;;;14.31;;
69837;SDS011;57135;51.992;4.476;2023-05-23T01:15:11;15.26;;;14.43;;
69837;SDS011;57135;51.992;4.476;2023-05-23T01:17:44;14.60;;;13.96;;
69837;SDS011;57135;51.992;4.476;2023-05-23T01:20:39;14.33;;;13.54;;
69837;SDS011;57135;51.992;4.476;2023-05-23T01:23:27;14.08;;;13.33;;
69837;SDS011;57135;51.992;4.476;2023-05-23T01:28:31;14.27;;;13.13;;
69837;SDS011;57135;51.992;4.476;2023-05-23T01:31:05;12.96;;;12.27;;
69837;SDS011;57135;51.992;4.476;2023-05-23T01:33:35;13.09;;;12.59;;
69837;SDS011;57135;51.992;4.476;2023-05-23T01:36:02;13.04;;;12.44;;
69837;SDS011;57135;51.992;4.476;2023-05-23T01:38:28;13.50;;;12.62;;
69837;SDS011;57135;51.992;4.476;2023-05-23T01:40:53;12.73;;;11.93;;
69837;SDS011;57135;51.992;4.476;2023-05-23T01:43:19;13.12;;;12.28;;
69837;SDS011;57135;51.992;4.476;2023-05-23T01:45:46;13.19;;;12.26;;
69837;SDS011;57135;51.992;4.476;2023-05-23T01:48:13;13.42;;;12.46;;
69837;SDS011;57135;51.992;4.476;2023-05-23T01:50:40;13.83;;;12.81;;
69837;SDS011;57135;51.992;4.476;2023-05-23T01:53:09;13.34;;;12.38;;
69837;SDS011;57135;51.992;4.476;2023-05-23T01:55:40;13.43;;;12.29;;
69837;SDS011;57135;51.992;4.476;2023-05-23T01:58:06;12.95;;;12.27;;
69837;SDS011;57135;51.992;4.476;2023-05-23T02:00:33;13.16;;;12.36;;
69837;SDS011;57135;51.992;4.476;2023-05-23T02:02:58;13.57;;;12.46;;
69837;SDS011;57135;51.992;4.476;2023-05-23T02:05:24;12.70;;;11.88;;
69837;SDS011;57135;51.992;4.476;2023-05-23T02:07:50;12.18;;;11.49;;
69837;SDS011;57135;51.992;4.476;2023-05-23T02:10:15;13.20;;;12.16;;
69837;SDS011;57135;51.992;4.476;2023-05-23T02:12:41;12.32;;;11.68;;
69837;SDS011;57135;51.992;4.476;2023-05-23T02:15:06;12.42;;;11.63;;
69837;SDS011;57135;51.992;4.476;2023-05-23T02:17:32;13.21;;;12.27;;
69837;SDS011;57135;51.992;4.476;2023-05-23T02:19:58;12.65;;;11.73;;
69837;SDS011;57135;51.992;4.476;2023-05-23T02:22:24;12.39;;;11.69;;
69837;SDS011;57135;51.992;4.476;2023-05-23T02:24:50;13.02;;;12.21;;
69837;SDS011;57135;51.992;4.476;2023-05-23T02:27:16;12.72;;;11.93;;
69837;SDS011;57135;51.992;4.476;2023-05-23T02:29:42;13.01;;;12.07;;
69837;SDS011;57135;51.992;4.476;2023-05-23T02:32:07;12.58;;;11.74;;
69837;SDS011;57135;51.992;4.476;2023-05-23T02:34:33;13.19;;;12.23;;
69837;SDS011;57135;51.992;4.476;2023-05-23T02:36:58;13.25;;;12.16;;
69837;SDS011;57135;51.992;4.476;2023-05-23T02:39:24;13.65;;;12.33;;
69837;SDS011;57135;51.992;4.476;2023-05-23T02:41:49;13.10;;;11.89;;
69837;SDS011;57135;51.992;4.476;2023-05-23T02:44:15;13.05;;;11.92;;
69837;SDS011;57135;51.992;4.476;2023-05-23T02:46:40;12.98;;;11.84;;
69837;SDS011;57135;51.992;4.476;2023-05-23T02:49:06;12.39;;;11.36;;
69837;SDS011;57135;51.992;4.476;2023-05-23T02:51:31;12.79;;;11.47;;
69837;SDS011;57135;51.992;4.476;2023-05-23T02:53:57;12.37;;;11.05;;
69837;SDS011;57135;51.992;4.476;2023-05-23T02:56:22;11.92;;;10.80;;
69837;SDS011;57135;51.992;4.476;2023-05-23T02:58:48;11.52;;;10.44;;
69837;SDS011;57135;51.992;4.476;2023-05-23T03:01:13;10.91;;;10.07;;
69837;SDS011;57135;51.992;4.476;2023-05-23T03:03:39;10.90;;;9.84;;
69837;SDS011;57135;51.992;4.476;2023-05-23T03:06:05;11.83;;;10.30;;
69837;SDS011;57135;51.992;4.476;2023-05-23T03:08:31;10.05;;;9.08;;
69837;SDS011;57135;51.992;4.476;2023-05-23T03:10:57;10.78;;;9.60;;
69837;SDS011;57135;51.992;4.476;2023-05-23T03:13:22;10.07;;;8.94;;
69837;SDS011;57135;51.992;4.476;2023-05-23T03:15:48;10.68;;;9.55;;
69837;SDS011;57135;51.992;4.476;2023-05-23T03:18:13;10.90;;;9.73;;
69837;SDS011;57135;51.992;4.476;2023-05-23T03:20:40;10.72;;;9.54;;
69837;SDS011;57135;51.992;4.476;2023-05-23T03:23:06;10.36;;;9.51;;
69837;SDS011;57135;51.992;4.476;2023-05-23T03:25:31;10.15;;;9.17;;
69837;SDS011;57135;51.992;4.476;2023-05-23T03:27:57;9.30;;;8.69;;
69837;SDS011;57135;51.992;4.476;2023-05-23T03:30:22;9.49;;;8.94;;
69837;SDS011;57135;51.992;4.476;2023-05-23T03:32:48;9.05;;;8.51;;
69837;SDS011;57135;51.992;4.476;2023-05-23T03:35:14;9.37;;;8.92;;
69837;SDS011;57135;51.992;4.476;2023-05-23T03:37:39;8.75;;;8.17;;
69837;SDS011;57135;51.992;4.476;2023-05-23T03:40:05;8.54;;;8.00;;
69837;SDS011;57135;51.992;4.476;2023-05-23T03:42:31;8.77;;;8.17;;
69837;SDS011;57135;51.992;4.476;2023-05-23T03:44:57;7.75;;;7.38;;
69837;SDS011;57135;51.992;4.476;2023-05-23T03:47:22;7.61;;;7.37;;
69837;SDS011;57135;51.992;4.476;2023-05-23T03:49:50;8.17;;;7.84;;
69837;SDS011;57135;51.992;4.476;2023-05-23T03:52:16;8.20;;;7.81;;
69837;SDS011;57135;51.992;4.476;2023-05-23T03:54:41;8.59;;;8.09;;
69837;SDS011;57135;51.992;4.476;2023-05-23T03:57:07;8.39;;;7.85;;
69837;SDS011;57135;51.992;4.476;2023-05-23T03:59:32;8.83;;;8.25;;
69837;SDS011;57135;51.992;4.476;2023-05-23T04:01:59;8.92;;;8.47;;
69837;SDS011;57135;51.992;4.476;2023-05-23T04:04:25;8.89;;;8.44;;
69837;SDS011;57135;51.992;4.476;2023-05-23T04:06:51;7.91;;;7.59;;
69837;SDS011;57135;51.992;4.476;2023-05-23T04:09:17;8.67;;;8.18;;
69837;SDS011;57135;51.992;4.476;2023-05-23T04:11:42;8.72;;;8.34;;
69837;SDS011;57135;51.992;4.476;2023-05-23T04:14:08;8.32;;;8.00;;
69837;SDS011;57135;51.992;4.476;2023-05-23T04:16:34;8.74;;;8.23;;
69837;SDS011;57135;51.992;4.476;2023-05-23T04:19:02;8.89;;;8.47;;
69837;SDS011;57135;51.992;4.476;2023-05-23T04:21:28;9.62;;;9.17;;
69837;SDS011;57135;51.992;4.476;2023-05-23T04:23:54;10.11;;;9.47;;
69837;SDS011;57135;51.992;4.476;2023-05-23T04:26:20;10.29;;;9.78;;
69837;SDS011;57135;51.992;4.476;2023-05-23T04:28:45;10.65;;;10.08;;
69837;SDS011;57135;51.992;4.476;2023-05-23T04:31:11;10.22;;;9.89;;
69837;SDS011;57135;51.992;4.476;2023-05-23T04:33:36;10.75;;;10.39;;
69837;SDS011;57135;51.992;4.476;2023-05-23T04:36:02;11.24;;;10.83;;
69837;SDS011;57135;51.992;4.476;2023-05-23T04:38:28;11.56;;;11.23;;
69837;SDS011;57135;51.992;4.476;2023-05-23T04:40:53;11.72;;;11.49;;
69837;SDS011;57135;51.992;4.476;2023-05-23T04:43:19;12.38;;;11.88;;
69837;SDS011;57135;51.992;4.476;2023-05-23T04:45:45;12.57;;;12.32;;
69837;SDS011;57135;51.992;4.476;2023-05-23T04:48:14;12.33;;;12.05;;
69837;SDS011;57135;51.992;4.476;2023-05-23T04:50:41;12.41;;;12.06;;
69837;SDS011;57135;51.992;4.476;2023-05-23T04:53:07;12.52;;;12.13;;
69837;SDS011;57135;51.992;4.476;2023-05-23T04:55:33;12.71;;;12.33;;
69837;SDS011;57135;51.992;4.476;2023-05-23T04:57:58;12.83;;;12.30;;
69837;SDS011;57135;51.992;4.476;2023-05-23T05:00:40;12.83;;;12.42;;
69837;SDS011;57135;51.992;4.476;2023-05-23T05:03:05;13.42;;;12.95;;
69837;SDS011;57135;51.992;4.476;2023-05-23T05:05:33;12.33;;;12.04;;
69837;SDS011;57135;51.992;4.476;2023-05-23T05:07:59;11.90;;;11.73;;
69837;SDS011;57135;51.992;4.476;2023-05-23T05:10:24;12.44;;;12.11;;
69837;SDS011;57135;51.992;4.476;2023-05-23T05:12:50;12.63;;;12.22;;
69837;SDS011;57135;51.992;4.476;2023-05-23T05:15:15;13.49;;;12.87;;
69837;SDS011;57135;51.992;4.476;2023-05-23T05:17:42;12.78;;;12.31;;
69837;SDS011;57135;51.992;4.476;2023-05-23T05:20:08;12.76;;;12.22;;
69837;SDS011;57135;51.992;4.476;2023-05-23T05:22:37;12.56;;;12.09;;
69837;SDS011;57135;51.992;4.476;2023-05-23T05:25:07;12.05;;;11.50;;
69837;SDS011;57135;51.992;4.476;2023-05-23T05:27:33;12.56;;;11.92;;
69837;SDS011;57135;51.992;4.476;2023-05-23T05:29:59;12.43;;;11.86;;
69837;SDS011;57135;51.992;4.476;2023-05-23T05:32:29;12.35;;;11.98;;
69837;SDS011;57135;51.992;4.476;2023-05-23T05:34:58;11.98;;;11.62;;
69837;SDS011;57135;51.992;4.476;2023-05-23T05:37:27;11.87;;;11.40;;
69837;SDS011;57135;51.992;4.476;2023-05-23T05:39:53;12.29;;;11.62;;
69837;SDS011;57135;51.992;4.476;2023-05-23T05:42:19;11.47;;;11.15;;
69837;SDS011;57135;51.992;4.476;2023-05-23T05:44:45;11.39;;;10.99;;
69837;SDS011;57135;51.992;4.476;2023-05-23T05:47:11;12.23;;;11.39;;
69837;SDS011;57135;51.992;4.476;2023-05-23T05:49:37;11.98;;;11.26;;
69837;SDS011;57135;51.992;4.476;2023-05-23T05:52:03;11.59;;;10.94;;
69837;SDS011;57135;51.992;4.476;2023-05-23T05:54:29;11.86;;;11.04;;
69837;SDS011;57135;51.992;4.476;2023-05-23T05:56:54;11.62;;;10.85;;
69837;SDS011;57135;51.992;4.476;2023-05-23T05:59:20;10.38;;;9.75;;
69837;SDS011;57135;51.992;4.476;2023-05-23T06:01:45;10.57;;;9.66;;
69837;SDS011;57135;51.992;4.476;2023-05-23T06:04:11;9.67;;;8.82;;
69837;SDS011;57135;51.992;4.476;2023-05-23T06:06:36;9.62;;;8.87;;
69837;SDS011;57135;51.992;4.476;2023-05-23T06:09:02;8.68;;;8.24;;
69837;SDS011;57135;51.992;4.476;2023-05-23T06:11:27;8.78;;;8.26;;
69837;SDS011;57135;51.992;4.476;2023-05-23T06:13:53;8.06;;;7.77;;
69837;SDS011;57135;51.992;4.476;2023-05-23T06:16:18;7.33;;;7.02;;
69837;SDS011;57135;51.992;4.476;2023-05-23T06:18:43;7.34;;;6.93;;
69837;SDS011;57135;51.992;4.476;2023-05-23T06:21:09;7.30;;;6.94;;
69837;SDS011;57135;51.992;4.476;2023-05-23T06:23:35;6.96;;;6.68;;
69837;SDS011;57135;51.992;4.476;2023-05-23T06:26:00;5.76;;;5.47;;
69837;SDS011;57135;51.992;4.476;2023-05-23T06:28:25;5.39;;;5.11;;
69837;SDS011;57135;51.992;4.476;2023-05-23T06:30:51;5.82;;;5.32;;
69837;SDS011;57135;51.992;4.476;2023-05-23T06:33:16;5.60;;;5.06;;
69837;SDS011;57135;51.992;4.476;2023-05-23T06:35:42;5.46;;;4.93;;
69837;SDS011;57135;51.992;4.476;2023-05-23T06:38:07;5.00;;;4.44;;
69837;SDS011;57135;51.992;4.476;2023-05-23T06:40:33;5.50;;;4.83;;
69837;SDS011;57135;51.992;4.476;2023-05-23T06:42:59;5.27;;;4.51;;
69837;SDS011;57135;51.992;4.476;2023-05-23T06:45:24;5.67;;;4.86;;
69837;SDS011;57135;51.992;4.476;2023-05-23T06:47:50;5.26;;;4.32;;
69837;SDS011;57135;51.992;4.476;2023-05-23T06:50:16;5.60;;;4.42;;
69837;SDS011;57135;51.992;4.476;2023-05-23T06:52:44;6.37;;;5.00;;
69837;SDS011;57135;51.992;4.476;2023-05-23T06:55:10;5.60;;;4.47;;
69837;SDS011;57135;51.992;4.476;2023-05-23T06:57:38;6.15;;;4.83;;
69837;SDS011;57135;51.992;4.476;2023-05-23T07:00:04;6.64;;;5.21;;
69837;SDS011;57135;51.992;4.476;2023-05-23T07:02:30;7.27;;;5.57;;
69837;SDS011;57135;51.992;4.476;2023-05-23T07:04:55;7.97;;;5.88;;
69837;SDS011;57135;51.992;4.476;2023-05-23T07:07:21;7.62;;;5.67;;
69837;SDS011;57135;51.992;4.476;2023-05-23T07:09:46;8.73;;;6.27;;
69837;SDS011;57135;51.992;4.476;2023-05-23T07:12:12;8.98;;;6.32;;
69837;SDS011;57135;51.992;4.476;2023-05-23T07:14:37;8.80;;;6.14;;
69837;SDS011;57135;51.992;4.476;2023-05-23T07:17:06;9.35;;;6.56;;
69837;SDS011;57135;51.992;4.476;2023-05-23T07:19:31;9.63;;;6.68;;
69837;SDS011;57135;51.992;4.476;2023-05-23T07:21:57;9.56;;;6.65;;
69837;SDS011;57135;51.992;4.476;2023-05-23T07:24:22;9.53;;;6.75;;
69837;SDS011;57135;51.992;4.476;2023-05-23T07:26:48;10.32;;;7.19;;
69837;SDS011;57135;51.992;4.476;2023-05-23T07:29:13;10.90;;;7.51;;
69837;SDS011;57135;51.992;4.476;2023-05-23T07:31:39;9.26;;;6.58;;
69837;SDS011;57135;51.992;4.476;2023-05-23T07:34:04;10.04;;;7.04;;
69837;SDS011;57135;51.992;4.476;2023-05-23T07:36:30;10.90;;;7.53;;
69837;SDS011;57135;51.992;4.476;2023-05-23T07:38:58;10.12;;;7.01;;
69837;SDS011;57135;51.992;4.476;2023-05-23T07:41:23;10.70;;;7.36;;
69837;SDS011;57135;51.992;4.476;2023-05-23T07:43:49;10.44;;;7.13;;
69837;SDS011;57135;51.992;4.476;2023-05-23T07:46:15;9.18;;;6.41;;
69837;SDS011;57135;51.992;4.476;2023-05-23T07:48:41;9.38;;;6.64;;
69837;SDS011;57135;51.992;4.476;2023-05-23T07:51:06;9.67;;;7.02;;
69837;SDS011;57135;51.992;4.476;2023-05-23T07:53:31;10.22;;;7.23;;
69837;SDS011;57135;51.992;4.476;2023-05-23T07:55:57;11.22;;;7.68;;
69837;SDS011;57135;51.992;4.476;2023-05-23T07:58:22;10.28;;;7.09;;
69837;SDS011;57135;51.992;4.476;2023-05-23T08:00:48;11.32;;;7.71;;
69837;SDS011;57135;51.992;4.476;2023-05-23T08:03:14;10.58;;;7.30;;
69837;SDS011;57135;51.992;4.476;2023-05-23T08:05:41;10.34;;;7.22;;
69837;SDS011;57135;51.992;4.476;2023-05-23T08:08:06;10.65;;;7.46;;
69837;SDS011;57135;51.992;4.476;2023-05-23T08:10:32;10.62;;;7.32;;
69837;SDS011;57135;51.992;4.476;2023-05-23T08:12:58;9.77;;;6.89;;
69837;SDS011;57135;51.992;4.476;2023-05-23T08:15:24;8.78;;;6.39;;
69837;SDS011;57135;51.992;4.476;2023-05-23T08:17:50;9.69;;;7.10;;
69837;SDS011;57135;51.992;4.476;2023-05-23T08:20:21;10.91;;;7.65;;
69837;SDS011;57135;51.992;4.476;2023-05-23T08:22:54;11.79;;;8.09;;
69837;SDS011;57135;51.992;4.476;2023-05-23T08:25:22;12.82;;;8.52;;
69837;SDS011;57135;51.992;4.476;2023-05-23T08:27:49;11.84;;;8.12;;
69837;SDS011;57135;51.992;4.476;2023-05-23T08:30:15;10.85;;;7.67;;
69837;SDS011;57135;51.992;4.476;2023-05-23T08:32:41;11.02;;;7.88;;
69837;SDS011;57135;51.992;4.476;2023-05-23T08:35:06;10.38;;;7.41;;
69837;SDS011;57135;51.992;4.476;2023-05-23T08:37:32;10.13;;;7.16;;
69837;SDS011;57135;51.992;4.476;2023-05-23T08:39:57;11.81;;;8.16;;
69837;SDS011;57135;51.992;4.476;2023-05-23T08:42:23;12.88;;;9.01;;
69837;SDS011;57135;51.992;4.476;2023-05-23T08:44:48;13.06;;;8.99;;
69837;SDS011;57135;51.992;4.476;2023-05-23T08:47:15;10.42;;;7.27;;
69837;SDS011;57135;51.992;4.476;2023-05-23T08:49:42;10.83;;;7.77;;
69837;SDS011;57135;51.992;4.476;2023-05-23T08:52:11;10.23;;;7.42;;
69837;SDS011;57135;51.992;4.476;2023-05-23T08:54:38;10.02;;;7.24;;
69837;SDS011;57135;51.992;4.476;2023-05-23T08:57:05;9.89;;;7.23;;
69837;SDS011;57135;51.992;4.476;2023-05-23T08:59:31;9.49;;;7.08;;
69837;SDS011;57135;51.992;4.476;2023-05-23T09:01:58;9.91;;;7.29;;
69837;SDS011;57135;51.992;4.476;2023-05-23T09:04:24;9.35;;;6.97;;
69837;SDS011;57135;51.992;4.476;2023-05-23T09:06:50;9.64;;;7.12;;
69837;SDS011;57135;51.992;4.476;2023-05-23T09:09:16;9.47;;;6.95;;
69837;SDS011;57135;51.992;4.476;2023-05-23T09:11:42;9.78;;;7.01;;
69837;SDS011;57135;51.992;4.476;2023-05-23T09:14:10;10.18;;;7.33;;
69837;SDS011;57135;51.992;4.476;2023-05-23T09:16:38;9.87;;;7.35;;
69837;SDS011;57135;51.992;4.476;2023-05-23T09:19:10;8.28;;;6.31;;
69837;SDS011;57135;51.992;4.476;2023-05-23T09:21:42;8.47;;;6.51;;
69837;SDS011;57135;51.992;4.476;2023-05-23T09:24:09;9.28;;;7.12;;
69837;SDS011;57135;51.992;4.476;2023-05-23T09:26:38;8.28;;;6.50;;
69837;SDS011;57135;51.992;4.476;2023-05-23T09:29:06;7.82;;;6.35;;
69837;SDS011;57135;51.992;4.476;2023-05-23T09:31:32;7.40;;;5.99;;
69837;SDS011;57135;51.992;4.476;2023-05-23T09:33:58;8.04;;;6.30;;
69837;SDS011;57135;51.992;4.476;2023-05-23T09:36:27;8.51;;;6.56;;
69837;SDS011;57135;51.992;4.476;2023-05-23T09:38:54;7.44;;;5.88;;
69837;SDS011;57135;51.992;4.476;2023-05-23T09:41:20;7.93;;;6.07;;
69837;SDS011;57135;51.992;4.476;2023-05-23T09:43:49;9.17;;;6.73;;
69837;SDS011;57135;51.992;4.476;2023-05-23T09:46:19;9.71;;;7.16;;
69837;SDS011;57135;51.992;4.476;2023-05-23T09:48:46;9.44;;;7.05;;
69837;SDS011;57135;51.992;4.476;2023-05-23T09:51:19;8.50;;;6.50;;
69837;SDS011;57135;51.992;4.476;2023-05-23T09:53:46;8.75;;;6.66;;
69837;SDS011;57135;51.992;4.476;2023-05-23T09:56:12;8.87;;;6.69;;
69837;SDS011;57135;51.992;4.476;2023-05-23T09:58:39;9.40;;;6.83;;
69837;SDS011;57135;51.992;4.476;2023-05-23T10:01:09;9.26;;;6.80;;
69837;SDS011;57135;51.992;4.476;2023-05-23T10:03:38;7.71;;;5.73;;
69837;SDS011;57135;51.992;4.476;2023-05-23T10:06:16;8.18;;;6.07;;
69837;SDS011;57135;51.992;4.476;2023-05-23T10:08:58;9.16;;;6.75;;
69837;SDS011;57135;51.992;4.476;2023-05-23T10:14:00;8.14;;;6.19;;
69837;SDS011;57135;51.992;4.476;2023-05-23T10:16:33;8.13;;;6.15;;
69837;SDS011;57135;51.992;4.476;2023-05-23T10:19:26;7.28;;;5.50;;
69837;SDS011;57135;51.992;4.476;2023-05-23T10:22:09;7.64;;;5.65;;
69837;SDS011;57135;51.992;4.476;2023-05-23T10:24:36;7.52;;;5.52;;
69837;SDS011;57135;51.992;4.476;2023-05-23T10:27:03;6.92;;;5.08;;
69837;SDS011;57135;51.992;4.476;2023-05-23T10:29:28;7.05;;;5.27;;
69837;SDS011;57135;51.992;4.476;2023-05-23T10:31:55;7.53;;;5.60;;
69837;SDS011;57135;51.992;4.476;2023-05-23T10:34:31;7.41;;;5.54;;
69837;SDS011;57135;51.992;4.476;2023-05-23T10:37:11;8.43;;;6.17;;
69837;SDS011;57135;51.992;4.476;2023-05-23T10:42:29;11.38;;;7.89;;
69837;SDS011;57135;51.992;4.476;2023-05-23T10:45:13;11.28;;;7.74;;
69837;SDS011;57135;51.992;4.476;2023-05-23T10:47:43;9.27;;;6.88;;
69837;SDS011;57135;51.992;4.476;2023-05-23T10:50:12;8.57;;;6.33;;
69837;SDS011;57135;51.992;4.476;2023-05-23T10:52:40;8.32;;;6.22;;
69837;SDS011;57135;51.992;4.476;2023-05-23T10:55:11;8.59;;;6.27;;
69837;SDS011;57135;51.992;4.476;2023-05-23T10:57:38;9.16;;;6.60;;
69837;SDS011;57135;51.992;4.476;2023-05-23T11:00:11;8.91;;;6.48;;
69837;SDS011;57135;51.992;4.476;2023-05-23T11:02:38;9.62;;;6.81;;
69837;SDS011;57135;51.992;4.476;2023-05-23T11:10:31;9.38;;;6.65;;
69837;SDS011;57135;51.992;4.476;2023-05-23T11:13:04;7.77;;;5.62;;
69837;SDS011;57135;51.992;4.476;2023-05-23T11:15:40;6.99;;;5.31;;
69837;SDS011;57135;51.992;4.476;2023-05-23T11:18:06;8.05;;;5.94;;
69837;SDS011;57135;51.992;4.476;2023-05-23T11:20:32;7.19;;;5.30;;
69837;SDS011;57135;51.992;4.476;2023-05-23T11:23:02;7.96;;;5.79;;
69837;SDS011;57135;51.992;4.476;2023-05-23T11:25:41;6.95;;;5.20;;
69837;SDS011;57135;51.992;4.476;2023-05-23T11:28:12;6.87;;;5.15;;
69837;SDS011;57135;51.992;4.476;2023-05-23T11:30:55;6.61;;;5.05;;
69837;SDS011;57135;51.992;4.476;2023-05-23T11:33:21;6.58;;;4.97;;
69837;SDS011;57135;51.992;4.476;2023-05-23T11:35:48;7.21;;;5.29;;
69837;SDS011;57135;51.992;4.476;2023-05-23T11:38:15;8.12;;;5.88;;
69837;SDS011;57135;51.992;4.476;2023-05-23T11:40:42;8.43;;;6.17;;
69837;SDS011;57135;51.992;4.476;2023-05-23T11:43:09;7.52;;;5.61;;
69837;SDS011;57135;51.992;4.476;2023-05-23T11:45:37;7.06;;;5.22;;
69837;SDS011;57135;51.992;4.476;2023-05-23T11:48:06;8.51;;;6.06;;
69837;SDS011;57135;51.992;4.476;2023-05-23T11:50:32;8.60;;;6.03;;
69837;SDS011;57135;51.992;4.476;2023-05-23T11:52:58;7.92;;;5.64;;
69837;SDS011;57135;51.992;4.476;2023-05-23T11:55:24;7.77;;;5.70;;
69837;SDS011;57135;51.992;4.476;2023-05-23T11:57:50;7.40;;;5.49;;
69837;SDS011;57135;51.992;4.476;2023-05-23T12:00:16;6.75;;;5.01;;
69837;SDS011;57135;51.992;4.476;2023-05-23T12:02:43;6.94;;;5.14;;
69837;SDS011;57135;51.992;4.476;2023-05-23T12:05:10;6.46;;;4.87;;
69837;SDS011;57135;51.992;4.476;2023-05-23T12:07:43;6.38;;;4.80;;
69837;SDS011;57135;51.992;4.476;2023-05-23T12:10:11;6.90;;;5.16;;
69837;SDS011;57135;51.992;4.476;2023-05-23T12:12:37;6.90;;;5.04;;
69837;SDS011;57135;51.992;4.476;2023-05-23T12:15:02;7.91;;;5.70;;
69837;SDS011;57135;51.992;4.476;2023-05-23T12:17:29;7.07;;;5.24;;
69837;SDS011;57135;51.992;4.476;2023-05-23T12:19:54;8.72;;;6.32;;
69837;SDS011;57135;51.992;4.476;2023-05-23T12:22:23;9.80;;;6.93;;
69837;SDS011;57135;51.992;4.476;2023-05-23T12:24:51;9.33;;;6.52;;
69837;SDS011;57135;51.992;4.476;2023-05-23T12:27:18;9.45;;;6.58;;
69837;SDS011;57135;51.992;4.476;2023-05-23T12:29:48;9.99;;;6.95;;
69837;SDS011;57135;51.992;4.476;2023-05-23T12:32:18;8.41;;;6.00;;
69837;SDS011;57135;51.992;4.476;2023-05-23T12:34:43;8.94;;;6.33;;
69837;SDS011;57135;51.992;4.476;2023-05-23T12:37:09;8.37;;;6.03;;
69837;SDS011;57135;51.992;4.476;2023-05-23T12:39:38;7.86;;;5.75;;
69837;SDS011;57135;51.992;4.476;2023-05-23T12:42:10;8.28;;;5.88;;
69837;SDS011;57135;51.992;4.476;2023-05-23T12:44:35;8.36;;;5.83;;
69837;SDS011;57135;51.992;4.476;2023-05-23T12:47:04;8.40;;;5.80;;
69837;SDS011;57135;51.992;4.476;2023-05-23T12:49:30;8.93;;;6.19;;
69837;SDS011;57135;51.992;4.476;2023-05-23T12:51:56;8.65;;;5.86;;
69837;SDS011;57135;51.992;4.476;2023-05-23T12:54:22;8.89;;;6.02;;
69837;SDS011;57135;51.992;4.476;2023-05-23T12:56:47;7.83;;;5.36;;
69837;SDS011;57135;51.992;4.476;2023-05-23T12:59:12;7.80;;;5.43;;
69837;SDS011;57135;51.992;4.476;2023-05-23T13:01:38;7.98;;;5.52;;
69837;SDS011;57135;51.992;4.476;2023-05-23T13:04:04;7.55;;;5.28;;
69837;SDS011;57135;51.992;4.476;2023-05-23T13:06:29;8.12;;;5.64;;
69837;SDS011;57135;51.992;4.476;2023-05-23T13:09:04;7.67;;;5.33;;
69837;SDS011;57135;51.992;4.476;2023-05-23T13:11:53;7.30;;;4.99;;
69837;SDS011;57135;51.992;4.476;2023-05-23T13:14:18;7.66;;;5.32;;
69837;SDS011;57135;51.992;4.476;2023-05-23T13:16:44;7.39;;;5.17;;
69837;SDS011;57135;51.992;4.476;2023-05-23T13:19:09;8.80;;;5.96;;
69837;SDS011;57135;51.992;4.476;2023-05-23T13:21:35;8.66;;;5.93;;
69837;SDS011;57135;51.992;4.476;2023-05-23T13:24:00;8.01;;;5.53;;
69837;SDS011;57135;51.992;4.476;2023-05-23T13:26:26;7.26;;;5.01;;
69837;SDS011;57135;51.992;4.476;2023-05-23T13:28:51;8.03;;;5.56;;
69837;SDS011;57135;51.992;4.476;2023-05-23T13:31:17;8.18;;;5.56;;
69837;SDS011;57135;51.992;4.476;2023-05-23T13:33:43;8.56;;;5.80;;
69837;SDS011;57135;51.992;4.476;2023-05-23T13:36:08;8.53;;;5.70;;
69837;SDS011;57135;51.992;4.476;2023-05-23T13:38:33;8.19;;;5.50;;
69837;SDS011;57135;51.992;4.476;2023-05-23T13:40:59;8.79;;;5.94;;
69837;SDS011;57135;51.992;4.476;2023-05-23T13:43:25;8.35;;;5.78;;
69837;SDS011;57135;51.992;4.476;2023-05-23T13:45:50;8.48;;;5.94;;
69837;SDS011;57135;51.992;4.476;2023-05-23T13:48:15;9.44;;;6.35;;
69837;SDS011;57135;51.992;4.476;2023-05-23T13:50:41;8.90;;;5.95;;
69837;SDS011;57135;51.992;4.476;2023-05-23T13:53:07;8.15;;;5.58;;
69837;SDS011;57135;51.992;4.476;2023-05-23T13:55:38;8.23;;;5.64;;
69837;SDS011;57135;51.992;4.476;2023-05-23T13:58:07;7.02;;;4.89;;
69837;SDS011;57135;51.992;4.476;2023-05-23T14:00:32;6.46;;;4.62;;
69837;SDS011;57135;51.992;4.476;2023-05-23T14:02:57;6.77;;;4.83;;
69837;SDS011;57135;51.992;4.476;2023-05-23T14:05:23;7.87;;;5.58;;
69837;SDS011;57135;51.992;4.476;2023-05-23T14:07:48;7.97;;;5.63;;
69837;SDS011;57135;51.992;4.476;2023-05-23T14:10:14;8.04;;;5.54;;
69837;SDS011;57135;51.992;4.476;2023-05-23T14:12:41;8.50;;;5.83;;
69837;SDS011;57135;51.992;4.476;2023-05-23T14:15:07;8.25;;;5.75;;
69837;SDS011;57135;51.992;4.476;2023-05-23T14:17:33;8.16;;;5.70;;
69837;SDS011;57135;51.992;4.476;2023-05-23T14:19:58;7.57;;;5.34;;
69837;SDS011;57135;51.992;4.476;2023-05-23T14:22:24;7.01;;;4.99;;
69837;SDS011;57135;51.992;4.476;2023-05-23T14:24:49;7.36;;;5.19;;
69837;SDS011;57135;51.992;4.476;2023-05-23T14:27:15;7.69;;;5.56;;
69837;SDS011;57135;51.992;4.476;2023-05-23T14:29:40;7.23;;;5.25;;
69837;SDS011;57135;51.992;4.476;2023-05-23T14:32:10;6.54;;;4.77;;
69837;SDS011;57135;51.992;4.476;2023-05-23T14:34:36;6.41;;;4.67;;
69837;SDS011;57135;51.992;4.476;2023-05-23T14:37:01;7.01;;;4.96;;
69837;SDS011;57135;51.992;4.476;2023-05-23T14:39:27;6.61;;;4.78;;
69837;SDS011;57135;51.992;4.476;2023-05-23T14:41:56;5.40;;;4.04;;
69837;SDS011;57135;51.992;4.476;2023-05-23T14:44:21;5.77;;;4.23;;
69837;SDS011;57135;51.992;4.476;2023-05-23T14:46:47;6.33;;;4.62;;
69837;SDS011;57135;51.992;4.476;2023-05-23T14:49:17;7.04;;;5.05;;
69837;SDS011;57135;51.992;4.476;2023-05-23T14:51:42;6.84;;;4.90;;